Quievrain, Belgium
Current Conditions -  °F | °C
As of 5:14 AM on Monday 26 Jan 2015 (Local Time) from EBCV Reporting Station
Overcast Overcast  
Wind Chill: 36°   Ceiling: 300
Heat Index: 41°   Visibility: 1.1mi
Dew Point: 39°   Wind: 8mph
Humidity: 93%   Direction: 220°SW
Pressure: 30.3"   Gusts: NA
Location:  50.41°N, 3.68°E
Report Text: EBCV 260414Z AUTO 22007KT 1800 SCT001/// OVC003/// 05/04 Q1026 RED
Loading
Personal Weather Stations






























Interactive Weather Map New forecast layout! Learn more

10-Day Weather Forecast

Advertisements
Track Severe Weather on mobile